ACF weather

Brisbane Archerfield Airport
Brisbane, Queensland, Australia

Public forecast

Using degrees Celsius for public forecast. Weather courtesy of forecast.io.

METAR (pilot weather report)

Closest report is Brisbane International Airport, 12.6 nm (23.3 km) NNE. Retrieved 2017/08/16 20:30 UTC (19 minutes ago):

YBBN 162030Z 24004KT 9999 0500NE BCFG MIFG NSC 15/15 Q1011 FM2100 27006KT CAVOK

TAF (pilot weather forecast)

Closest forecast is Brisbane International Airport, 12.6 nm (23.3 km) NNE. Retrieved 2017/08/16 18:35 UTC (2 hours ago):

TAF YBBN 161710Z 1618/1724 34008KT CAVOK FM170300 03010KT CAVOK FM170800 25007KT CAVOK FM171800 25012KT CAVOK